createdAt,value
2019-02-09T00:00:03.384Z,0.00
2019-02-09T00:01:02.392Z,0.00
2019-02-09T00:02:02.406Z,0.00
2019-02-09T00:03:02.521Z,5.63
2019-02-09T00:04:02.440Z,5.63
2019-02-09T00:05:02.454Z,5.63
2019-02-09T00:06:03.486Z,5.63
2019-02-09T00:07:02.490Z,5.63
2019-02-09T00:08:02.505Z,5.63
2019-02-09T00:09:02.553Z,5.63
2019-02-09T00:10:02.541Z,5.63
2019-02-09T00:11:02.631Z,5.63
2019-02-09T00:12:03.585Z,5.63
2019-02-09T00:13:02.595Z,5.63
2019-02-09T00:14:02.609Z,5.63
2019-02-09T00:15:02.631Z,5.63
2019-02-09T00:16:02.666Z,5.63
2019-02-09T00:17:02.682Z,5.63
2019-02-09T00:18:03.691Z,5.63
2019-02-09T00:19:03.712Z,5.63
2019-02-09T00:20:02.720Z,5.63
2019-02-09T00:21:02.727Z,11.25
2019-02-09T00:22:02.749Z,11.25
2019-02-09T00:23:02.765Z,5.63
2019-02-09T00:24:03.789Z,5.63
2019-02-09T00:25:02.800Z,5.63
2019-02-09T00:26:02.827Z,11.25
2019-02-09T00:27:02.837Z,11.25
2019-02-09T00:28:02.872Z,11.25
2019-02-09T00:29:02.867Z,11.25
2019-02-09T00:30:03.901Z,11.25
2019-02-09T00:31:02.903Z,11.25
2019-02-09T00:32:02.918Z,11.25
2019-02-09T00:33:02.950Z,11.25
2019-02-09T00:34:02.965Z,11.25
2019-02-09T00:35:02.978Z,11.25
2019-02-09T00:36:04.000Z,11.25
2019-02-09T00:37:03.007Z,11.25
2019-02-09T00:38:03.026Z,11.25
2019-02-09T00:39:03.048Z,11.25
2019-02-09T00:40:03.058Z,11.25
2019-02-09T00:41:03.073Z,11.25
2019-02-09T00:42:04.134Z,11.25
2019-02-09T00:43:03.114Z,16.88
2019-02-09T00:44:03.162Z,16.88
2019-02-09T00:45:03.146Z,16.88
2019-02-09T00:46:03.162Z,11.25
2019-02-09T00:47:03.187Z,16.88
2019-02-09T00:48:04.211Z,16.88
2019-02-09T00:49:03.221Z,16.88
2019-02-09T00:50:03.234Z,16.88
2019-02-09T00:51:03.252Z,16.88
2019-02-09T00:52:03.269Z,16.88
2019-02-09T00:53:03.284Z,16.88
2019-02-09T00:54:04.310Z,16.88
2019-02-09T00:55:03.324Z,16.88
2019-02-09T00:56:03.340Z,16.88
2019-02-09T00:57:03.351Z,16.88
2019-02-09T00:58:03.371Z,16.88
2019-02-09T00:59:03.389Z,16.88
2019-02-09T01:00:04.418Z,16.88
2019-02-09T01:01:03.425Z,16.88
2019-02-09T01:02:03.442Z,16.88
2019-02-09T01:03:03.465Z,16.88
2019-02-09T01:04:03.477Z,16.88
2019-02-09T01:05:03.503Z,16.88
2019-02-09T01:06:04.524Z,16.88
2019-02-09T01:07:03.541Z,16.88
2019-02-09T01:08:03.549Z,22.50
2019-02-09T01:09:03.573Z,22.50
2019-02-09T01:10:03.658Z,22.50
2019-02-09T01:11:03.607Z,22.50
2019-02-09T01:12:04.634Z,22.50
2019-02-09T01:13:03.633Z,22.50
2019-02-09T01:14:03.659Z,22.50
2019-02-09T01:15:03.677Z,22.50
2019-02-09T01:16:03.685Z,22.50
2019-02-09T01:17:03.709Z,22.50
2019-02-09T01:18:04.743Z,22.50
2019-02-09T01:19:03.744Z,22.50
2019-02-09T01:20:03.775Z,28.13
2019-02-09T01:21:03.779Z,28.13
2019-02-09T01:22:03.792Z,22.50
2019-02-09T01:23:03.812Z,28.13
2019-02-09T01:24:04.839Z,22.50
2019-02-09T01:25:03.848Z,28.13
2019-02-09T01:26:03.870Z,28.13
2019-02-09T01:27:03.881Z,28.13
2019-02-09T01:28:03.901Z,28.13
2019-02-09T01:29:03.917Z,28.13
2019-02-09T01:30:04.950Z,28.13
2019-02-09T01:31:03.953Z,28.13
2019-02-09T01:32:03.970Z,28.13
2019-02-09T01:33:03.987Z,28.13
2019-02-09T01:34:04.013Z,28.13
2019-02-09T01:35:04.035Z,28.13
2019-02-09T01:36:05.056Z,28.13
2019-02-09T01:37:04.067Z,28.13
2019-02-09T01:38:04.077Z,28.13
2019-02-09T01:39:04.093Z,28.13
2019-02-09T01:40:04.113Z,28.13
2019-02-09T01:41:04.134Z,28.13
2019-02-09T01:42:05.161Z,33.75
2019-02-09T01:43:04.170Z,33.75
2019-02-09T01:44:04.183Z,33.75
2019-02-09T01:45:04.208Z,28.13
2019-02-09T01:46:04.217Z,28.13
2019-02-09T01:47:04.242Z,28.13
2019-02-09T01:48:05.270Z,33.75
2019-02-09T01:49:04.277Z,33.75
2019-02-09T01:50:04.293Z,33.75
2019-02-09T01:51:04.311Z,33.75
2019-02-09T01:52:04.326Z,28.13
2019-02-09T01:53:04.349Z,28.13
2019-02-09T01:54:05.437Z,28.13
2019-02-09T01:55:04.381Z,33.75
2019-02-09T01:56:04.399Z,33.75
2019-02-09T01:57:04.420Z,33.75
2019-02-09T01:58:04.437Z,33.75
2019-02-09T01:59:04.454Z,33.75
2019-02-09T02:00:10.479Z,33.75
2019-02-09T02:01:04.491Z,33.75
2019-02-09T02:02:04.508Z,33.75
2019-02-09T02:03:04.531Z,33.75
2019-02-09T02:04:04.544Z,28.13
2019-02-09T02:05:04.565Z,28.13
2019-02-09T02:06:05.593Z,33.75
2019-02-09T02:07:04.594Z,33.75
2019-02-09T02:08:04.636Z,33.75
2019-02-09T02:09:04.637Z,33.75
2019-02-09T02:10:04.649Z,33.75
2019-02-09T02:11:04.676Z,33.75
2019-02-09T02:12:05.703Z,33.75
2019-02-09T02:13:04.706Z,39.38
2019-02-09T02:14:04.726Z,39.38
2019-02-09T02:15:04.747Z,39.38
2019-02-09T02:16:04.767Z,39.38
2019-02-09T02:17:04.780Z,39.38
2019-02-09T02:18:05.811Z,39.38
2019-02-09T02:19:04.815Z,39.38
2019-02-09T02:20:04.831Z,33.75
2019-02-09T02:21:04.945Z,33.75
2019-02-09T02:22:04.871Z,33.75
2019-02-09T02:23:04.886Z,33.75
2019-02-09T02:24:05.944Z,33.75
2019-02-09T02:25:04.919Z,33.75
2019-02-09T02:26:04.945Z,33.75
2019-02-09T02:27:04.959Z,39.38
2019-02-09T02:28:04.976Z,33.75
2019-02-09T02:29:04.993Z,33.75
2019-02-09T02:30:06.024Z,33.75
2019-02-09T02:31:05.033Z,33.75
2019-02-09T02:32:05.057Z,33.75
2019-02-09T02:33:05.067Z,33.75
2019-02-09T02:34:05.092Z,39.38
2019-02-09T02:35:05.111Z,39.38
2019-02-09T02:36:06.136Z,45.00
2019-02-09T02:37:05.145Z,45.00
2019-02-09T02:38:05.160Z,45.00
2019-02-09T02:39:05.179Z,45.00
2019-02-09T02:40:05.205Z,39.38
2019-02-09T02:41:05.214Z,39.38
2019-02-09T02:42:06.245Z,39.38
2019-02-09T02:43:05.257Z,39.38
2019-02-09T02:44:05.270Z,39.38
2019-02-09T02:45:05.290Z,39.38
2019-02-09T02:46:05.313Z,33.75
2019-02-09T02:47:05.322Z,33.75
2019-02-09T02:48:06.353Z,33.75
2019-02-09T02:49:05.363Z,39.38
2019-02-09T02:50:05.395Z,39.38
2019-02-09T02:51:05.400Z,45.00
2019-02-09T02:52:05.412Z,39.38
2019-02-09T02:53:05.450Z,45.00
2019-02-09T02:54:06.467Z,39.38
2019-02-09T02:55:05.473Z,39.38
2019-02-09T02:56:05.487Z,39.38
2019-02-09T02:57:05.511Z,39.38
2019-02-09T02:58:05.531Z,39.38
2019-02-09T02:59:05.544Z,45.00
2019-02-09T03:00:06.574Z,45.00
2019-02-09T03:01:05.581Z,45.00
2019-02-09T03:02:05.603Z,45.00
2019-02-09T03:03:05.619Z,45.00
2019-02-09T03:04:05.640Z,45.00
2019-02-09T03:05:05.655Z,45.00
2019-02-09T03:06:06.687Z,45.00
2019-02-09T03:07:05.694Z,45.00
2019-02-09T03:08:05.715Z,45.00
2019-02-09T03:09:05.737Z,39.38
2019-02-09T03:10:05.750Z,39.38
2019-02-09T03:11:05.766Z,39.38
2019-02-09T03:12:06.797Z,39.38
2019-02-09T03:13:05.809Z,45.00
2019-02-09T03:14:05.826Z,45.00
2019-02-09T03:15:05.847Z,45.00
2019-02-09T03:16:05.858Z,45.00
2019-02-09T03:17:05.883Z,45.00
2019-02-09T03:18:06.906Z,45.00
2019-02-09T03:19:05.917Z,39.38
2019-02-09T03:20:05.936Z,39.38
2019-02-09T03:21:05.954Z,45.00
2019-02-09T03:22:05.974Z,39.38
2019-02-09T03:23:05.994Z,39.38
2019-02-09T03:24:07.023Z,39.38
2019-02-09T03:25:06.045Z,45.00
2019-02-09T03:26:06.047Z,45.00
2019-02-09T03:27:06.067Z,50.63
2019-02-09T03:28:06.089Z,50.63
2019-02-09T03:29:06.099Z,50.63
2019-02-09T03:30:07.136Z,50.63
2019-02-09T03:31:06.140Z,50.63
2019-02-09T03:32:06.162Z,50.63
2019-02-09T03:33:06.183Z,50.63
2019-02-09T03:34:06.202Z,45.00
2019-02-09T03:35:06.217Z,39.38
2019-02-09T03:36:07.247Z,45.00
2019-02-09T03:37:06.272Z,45.00
2019-02-09T03:38:06.278Z,45.00
2019-02-09T03:39:06.294Z,50.63
2019-02-09T03:40:06.309Z,50.63
2019-02-09T03:41:06.332Z,50.63
2019-02-09T03:42:07.375Z,50.63
2019-02-09T03:43:06.378Z,50.63
2019-02-09T03:44:06.415Z,45.00
2019-02-09T03:45:06.408Z,45.00
2019-02-09T03:46:06.422Z,45.00
2019-02-09T03:47:06.443Z,45.00
2019-02-09T03:48:07.475Z,45.00
2019-02-09T03:49:06.485Z,45.00
2019-02-09T03:50:06.498Z,45.00
2019-02-09T03:51:06.526Z,45.00
2019-02-09T03:52:06.544Z,39.38
2019-02-09T03:53:06.562Z,50.63
2019-02-09T03:54:07.617Z,45.00
2019-02-09T03:55:06.598Z,45.00
2019-02-09T03:56:06.615Z,45.00
2019-02-09T03:57:06.633Z,45.00
2019-02-09T03:58:06.651Z,45.00
2019-02-09T03:59:06.673Z,45.00
2019-02-09T04:00:07.704Z,45.00
2019-02-09T04:01:06.712Z,45.00
2019-02-09T04:02:06.731Z,39.38
2019-02-09T04:03:06.745Z,45.00
2019-02-09T04:04:06.768Z,39.38
2019-02-09T04:05:06.803Z,39.38
2019-02-09T04:06:07.822Z,39.38
2019-02-09T04:07:06.828Z,39.38
2019-02-09T04:08:06.844Z,45.00
2019-02-09T04:09:06.864Z,45.00
2019-02-09T04:10:06.891Z,50.63
2019-02-09T04:11:06.906Z,45.00
2019-02-09T04:12:07.945Z,45.00
2019-02-09T04:13:06.941Z,45.00
2019-02-09T04:14:06.964Z,45.00
2019-02-09T04:15:06.994Z,45.00
2019-02-09T04:16:07.001Z,45.00
2019-02-09T04:17:06.924Z,50.63
2019-02-09T04:18:08.050Z,50.63
2019-02-09T04:19:07.060Z,50.63
2019-02-09T04:20:07.079Z,50.63
2019-02-09T04:21:07.097Z,50.63
2019-02-09T04:22:07.116Z,50.63
2019-02-09T04:23:07.139Z,50.63
2019-02-09T04:24:08.162Z,45.00
2019-02-09T04:25:07.174Z,45.00
2019-02-09T04:26:07.188Z,45.00
2019-02-09T04:27:07.214Z,45.00
2019-02-09T04:28:07.235Z,45.00
2019-02-09T04:29:07.250Z,45.00
2019-02-09T04:30:10.390Z,39.38
2019-02-09T04:31:07.309Z,39.38
2019-02-09T04:32:07.310Z,39.38
2019-02-09T04:33:07.328Z,39.38
2019-02-09T04:34:07.350Z,39.38
2019-02-09T04:35:07.387Z,39.38
2019-02-09T04:36:08.393Z,39.38
2019-02-09T04:37:07.407Z,39.38
2019-02-09T04:38:07.422Z,39.38
2019-02-09T04:39:07.439Z,45.00
2019-02-09T04:40:07.462Z,45.00
2019-02-09T04:41:07.481Z,45.00
2019-02-09T04:42:08.510Z,45.00
2019-02-09T04:43:07.528Z,45.00
2019-02-09T04:44:07.539Z,50.63
2019-02-09T04:45:07.625Z,45.00
2019-02-09T04:46:07.612Z,50.63
2019-02-09T04:47:07.595Z,45.00
2019-02-09T04:48:08.636Z,50.63
2019-02-09T04:49:07.648Z,45.00
2019-02-09T04:50:07.822Z,50.63
2019-02-09T04:51:07.680Z,50.63
2019-02-09T04:52:07.690Z,50.63
2019-02-09T04:53:07.715Z,45.00
2019-02-09T04:54:08.755Z,45.00
2019-02-09T04:55:07.755Z,45.00
2019-02-09T04:56:07.769Z,45.00
2019-02-09T04:57:07.795Z,45.00
2019-02-09T04:58:07.839Z,45.00
2019-02-09T04:59:07.827Z,39.38
2019-02-09T05:00:08.859Z,39.38
2019-02-09T05:01:13.860Z,39.38
2019-02-09T05:02:07.885Z,45.00
2019-02-09T05:03:08.229Z,45.00
2019-02-09T05:04:07.970Z,45.00
2019-02-09T05:05:07.960Z,45.00
2019-02-09T05:06:08.977Z,45.00
2019-02-09T05:07:08.026Z,39.38
2019-02-09T05:08:08.007Z,45.00
2019-02-09T05:09:08.033Z,45.00
2019-02-09T05:10:08.046Z,45.00
2019-02-09T05:11:08.065Z,45.00
2019-02-09T05:12:09.099Z,50.63
2019-02-09T05:13:08.102Z,50.63
2019-02-09T05:14:08.123Z,50.63
2019-02-09T05:15:08.145Z,50.63
2019-02-09T05:16:08.161Z,50.63
2019-02-09T05:17:08.181Z,50.63
2019-02-09T05:18:09.222Z,50.63
2019-02-09T05:19:08.217Z,50.63
2019-02-09T05:20:08.240Z,50.63
2019-02-09T05:21:08.261Z,45.00
2019-02-09T05:22:08.289Z,50.63
2019-02-09T05:23:08.313Z,50.63
2019-02-09T05:24:09.337Z,50.63
2019-02-09T05:25:08.342Z,50.63
2019-02-09T05:26:08.362Z,45.00
2019-02-09T05:27:08.378Z,39.38
2019-02-09T05:28:08.395Z,39.38
2019-02-09T05:29:08.415Z,39.38
2019-02-09T05:30:09.444Z,39.38
2019-02-09T05:31:08.460Z,39.38
2019-02-09T05:32:08.468Z,39.38
2019-02-09T05:33:08.492Z,45.00
2019-02-09T05:34:08.512Z,45.00
2019-02-09T05:35:08.532Z,50.63
2019-02-09T05:36:09.563Z,39.38
2019-02-09T05:37:08.572Z,45.00
2019-02-09T05:38:08.609Z,45.00
2019-02-09T05:39:08.617Z,45.00
2019-02-09T05:40:08.645Z,45.00
2019-02-09T05:41:08.649Z,45.00
2019-02-09T05:42:09.681Z,45.00
2019-02-09T05:43:08.695Z,50.63
2019-02-09T05:44:08.729Z,50.63
2019-02-09T05:45:08.727Z,45.00
2019-02-09T05:46:08.747Z,45.00
2019-02-09T05:47:08.789Z,45.00
2019-02-09T05:48:09.937Z,50.63
2019-02-09T05:49:08.803Z,50.63
2019-02-09T05:50:08.851Z,50.63
2019-02-09T05:51:08.847Z,50.63
2019-02-09T05:52:08.867Z,50.63
2019-02-09T05:53:08.886Z,50.63
2019-02-09T05:54:09.919Z,50.63
2019-02-09T05:55:08.927Z,50.63
2019-02-09T05:56:08.942Z,50.63
2019-02-09T05:57:08.969Z,50.63
2019-02-09T05:58:08.987Z,50.63
2019-02-09T05:59:09.007Z,50.63
2019-02-09T06:00:10.048Z,50.63
2019-02-09T06:01:09.045Z,50.63
2019-02-09T06:02:09.061Z,50.63
2019-02-09T06:03:09.089Z,50.63
2019-02-09T06:04:09.150Z,50.63
2019-02-09T06:05:09.124Z,50.63
2019-02-09T06:06:10.155Z,45.00
2019-02-09T06:07:09.171Z,45.00
2019-02-09T06:08:09.177Z,39.38
2019-02-09T06:09:09.258Z,45.00
2019-02-09T06:10:09.228Z,39.38
2019-02-09T06:11:09.248Z,39.38
2019-02-09T06:12:10.277Z,45.00
2019-02-09T06:13:09.281Z,50.63
2019-02-09T06:14:09.302Z,50.63
2019-02-09T06:15:09.350Z,45.00
2019-02-09T06:16:09.347Z,45.00
2019-02-09T06:17:09.359Z,45.00
2019-02-09T06:18:10.393Z,50.63
2019-02-09T06:19:09.400Z,50.63
2019-02-09T06:20:09.423Z,50.63
2019-02-09T06:21:09.440Z,50.63
2019-02-09T06:22:09.458Z,45.00
2019-02-09T06:23:09.480Z,45.00
2019-02-09T06:24:10.507Z,45.00
2019-02-09T06:25:09.517Z,45.00
2019-02-09T06:26:09.536Z,50.63
2019-02-09T06:27:09.562Z,50.63
2019-02-09T06:28:09.590Z,56.25
2019-02-09T06:29:09.601Z,50.63
2019-02-09T06:30:10.636Z,50.63
2019-02-09T06:31:09.635Z,45.00
2019-02-09T06:32:09.654Z,50.63
2019-02-09T06:33:09.675Z,50.63
2019-02-09T06:34:09.696Z,50.63
2019-02-09T06:35:09.717Z,50.63
2019-02-09T06:36:10.745Z,45.00
2019-02-09T06:37:09.761Z,45.00
2019-02-09T06:38:09.783Z,45.00
2019-02-09T06:39:09.819Z,45.00
2019-02-09T06:40:09.816Z,50.63
2019-02-09T06:41:09.845Z,50.63
2019-02-09T06:42:10.870Z,50.63
2019-02-09T06:43:09.879Z,50.63
2019-02-09T06:44:09.894Z,50.63
2019-02-09T06:45:09.919Z,45.00
2019-02-09T06:46:09.934Z,45.00
2019-02-09T06:47:09.955Z,56.25
2019-02-09T06:48:10.985Z,56.25
2019-02-09T06:49:09.995Z,56.25
2019-02-09T06:50:10.410Z,56.25
2019-02-09T06:51:11.228Z,56.25
2019-02-09T06:52:10.052Z,45.00
2019-02-09T06:53:10.078Z,50.63
2019-02-09T06:54:11.112Z,50.63
2019-02-09T06:55:10.116Z,50.63
2019-02-09T06:56:10.181Z,45.00
2019-02-09T06:57:10.165Z,45.00
2019-02-09T06:58:10.190Z,45.00
2019-02-09T06:59:10.193Z,50.63
2019-02-09T07:00:11.223Z,50.63
2019-02-09T07:01:10.286Z,56.25
2019-02-09T07:02:10.266Z,56.25
2019-02-09T07:03:10.274Z,56.25
2019-02-09T07:04:10.315Z,56.25
2019-02-09T07:05:10.316Z,56.25
2019-02-09T07:06:11.358Z,56.25
2019-02-09T07:07:10.369Z,56.25
2019-02-09T07:08:10.375Z,56.25
2019-02-09T07:09:10.401Z,56.25
2019-02-09T07:10:10.695Z,56.25
2019-02-09T07:11:10.815Z,56.25
2019-02-09T07:12:11.611Z,56.25
2019-02-09T07:13:10.474Z,61.88
2019-02-09T07:14:12.240Z,61.88
2019-02-09T07:15:10.510Z,67.50
2019-02-09T07:16:10.533Z,67.50
2019-02-09T07:17:10.834Z,67.50
2019-02-09T07:18:11.620Z,61.88
2019-02-09T07:19:10.595Z,61.88
2019-02-09T07:20:10.615Z,61.88
2019-02-09T07:21:10.638Z,56.25
2019-02-09T07:22:10.654Z,61.88
2019-02-09T07:23:10.675Z,61.88
2019-02-09T07:24:11.704Z,61.88
2019-02-09T07:25:10.732Z,61.88
2019-02-09T07:26:10.751Z,61.88
2019-02-09T07:27:10.753Z,56.25
2019-02-09T07:28:10.781Z,56.25
2019-02-09T07:29:10.796Z,56.25
2019-02-09T07:30:11.839Z,56.25
2019-02-09T07:31:11.039Z,56.25
2019-02-09T07:32:10.860Z,61.88
2019-02-09T07:33:10.899Z,56.25
2019-02-09T07:34:10.899Z,56.25
2019-02-09T07:35:10.919Z,56.25
2019-02-09T07:36:11.957Z,56.25
2019-02-09T07:37:10.960Z,61.88
2019-02-09T07:38:10.979Z,56.25
2019-02-09T07:39:11.010Z,61.88
2019-02-09T07:40:11.046Z,61.88
2019-02-09T07:41:17.600Z,67.50
2019-02-09T07:42:12.108Z,61.88
2019-02-09T07:43:11.088Z,61.88
2019-02-09T07:44:11.102Z,61.88
2019-02-09T07:45:11.123Z,61.88
2019-02-09T07:46:11.144Z,61.88
2019-02-09T07:47:11.161Z,61.88
2019-02-09T07:48:12.201Z,61.88
2019-02-09T07:49:11.208Z,61.88
2019-02-09T07:50:11.232Z,61.88
2019-02-09T07:51:11.247Z,61.88
2019-02-09T07:52:11.277Z,61.88
2019-02-09T07:53:11.298Z,61.88
2019-02-09T07:54:12.325Z,61.88
2019-02-09T07:55:11.338Z,56.25
2019-02-09T07:56:11.353Z,61.88
2019-02-09T07:57:11.377Z,61.88
2019-02-09T07:58:11.388Z,61.88
2019-02-09T07:59:11.411Z,61.88
2019-02-09T08:00:12.444Z,56.25
2019-02-09T08:01:11.458Z,56.25
2019-02-09T08:02:11.481Z,56.25
2019-02-09T08:03:11.495Z,56.25
2019-02-09T08:04:11.535Z,61.88
2019-02-09T08:05:11.535Z,61.88
2019-02-09T08:06:12.533Z,61.88
2019-02-09T08:07:11.581Z,67.50
2019-02-09T08:08:11.614Z,61.88
2019-02-09T08:09:11.639Z,61.88
2019-02-09T08:10:11.657Z,61.88
2019-02-09T08:11:11.669Z,56.25
2019-02-09T08:12:12.698Z,61.88
2019-02-09T08:13:11.704Z,67.50
2019-02-09T08:14:11.747Z,67.50
2019-02-09T08:15:11.742Z,73.13
2019-02-09T08:16:11.763Z,73.13
2019-02-09T08:17:11.782Z,73.13
2019-02-09T08:18:12.833Z,73.13
2019-02-09T08:19:11.829Z,73.13
2019-02-09T08:20:11.871Z,73.13
2019-02-09T08:21:11.878Z,73.13
2019-02-09T08:22:11.887Z,67.50
2019-02-09T08:23:11.913Z,67.50
2019-02-09T08:24:12.959Z,67.50
2019-02-09T08:25:11.955Z,67.50
2019-02-09T08:26:11.975Z,61.88
2019-02-09T08:27:11.990Z,67.50
2019-02-09T08:28:12.023Z,67.50
2019-02-09T08:29:12.045Z,67.50
2019-02-09T08:30:13.067Z,67.50
2019-02-09T08:31:12.075Z,67.50
2019-02-09T08:32:13.072Z,67.50
2019-02-09T08:33:12.112Z,61.88
2019-02-09T08:34:12.133Z,67.50
2019-02-09T08:35:12.170Z,67.50
2019-02-09T08:36:13.186Z,67.50
2019-02-09T08:37:12.194Z,73.13
2019-02-09T08:38:12.218Z,73.13
2019-02-09T08:39:12.253Z,67.50
2019-02-09T08:40:12.276Z,67.50
2019-02-09T08:41:12.286Z,73.13
2019-02-09T08:42:13.333Z,73.13
2019-02-09T08:43:12.325Z,73.13
2019-02-09T08:44:12.348Z,73.13
2019-02-09T08:45:12.369Z,67.50
2019-02-09T08:46:12.382Z,61.88
2019-02-09T08:47:12.427Z,67.50
2019-02-09T08:48:13.444Z,67.50
2019-02-09T08:49:12.450Z,67.50
2019-02-09T08:50:12.466Z,67.50
2019-02-09T08:51:12.488Z,73.13
2019-02-09T08:52:12.513Z,67.50
2019-02-09T08:53:12.539Z,67.50
2019-02-09T08:54:13.562Z,67.50
2019-02-09T08:55:12.572Z,61.88
2019-02-09T08:56:12.591Z,78.75
2019-02-09T08:57:12.632Z,118.13
2019-02-09T08:58:12.637Z,90.00
2019-02-09T08:59:12.673Z,61.88
2019-02-09T09:00:13.686Z,67.50
2019-02-09T09:01:12.710Z,73.13
2019-02-09T09:02:20.165Z,67.50
2019-02-09T09:03:12.750Z,50.63
2019-02-09T09:04:12.762Z,50.63
2019-02-09T09:05:12.806Z,50.63
2019-02-09T09:06:13.846Z,56.25
2019-02-09T09:07:12.833Z,56.25
2019-02-09T09:08:12.847Z,56.25
2019-02-09T09:09:13.550Z,61.88
2019-02-09T09:10:12.889Z,61.88
2019-02-09T09:11:12.909Z,61.88
2019-02-09T09:12:13.936Z,101.25
2019-02-09T09:13:12.950Z,123.75
2019-02-09T09:14:12.966Z,106.88
2019-02-09T09:15:12.991Z,61.88
2019-02-09T09:16:13.008Z,61.88
2019-02-09T09:17:13.035Z,56.25
2019-02-09T09:18:14.061Z,61.88
2019-02-09T09:19:13.071Z,73.13
2019-02-09T09:20:13.103Z,73.13
2019-02-09T09:21:13.113Z,45.00
2019-02-09T09:22:13.130Z,50.63
2019-02-09T09:23:13.155Z,50.63
2019-02-09T09:24:14.184Z,45.00
2019-02-09T09:25:13.192Z,45.00
2019-02-09T09:26:13.232Z,39.38
2019-02-09T09:27:13.236Z,45.00
2019-02-09T09:28:13.259Z,39.38
2019-02-09T09:29:13.279Z,39.38
2019-02-09T09:30:14.355Z,39.38
2019-02-09T09:31:13.320Z,39.38
2019-02-09T09:32:13.356Z,39.38
2019-02-09T09:33:13.370Z,56.25
2019-02-09T09:34:13.383Z,50.63
2019-02-09T09:35:13.413Z,50.63
2019-02-09T09:36:14.440Z,50.63
2019-02-09T09:37:13.459Z,45.00
2019-02-09T09:38:13.470Z,39.38
2019-02-09T09:39:13.494Z,45.00
2019-02-09T09:40:13.502Z,45.00
2019-02-09T09:41:13.564Z,45.00
2019-02-09T09:42:14.570Z,39.38
2019-02-09T09:43:14.165Z,45.00
2019-02-09T09:44:13.612Z,73.13
2019-02-09T09:45:13.607Z,50.63
2019-02-09T09:46:13.635Z,39.38
2019-02-09T09:47:13.656Z,28.13
2019-02-09T09:48:14.686Z,28.13
2019-02-09T09:49:14.005Z,28.13
2019-02-09T09:50:13.727Z,56.25
2019-02-09T09:51:13.730Z,112.50
2019-02-09T09:52:13.753Z,39.38
2019-02-09T09:53:13.787Z,39.38
2019-02-09T09:54:14.811Z,39.38
2019-02-09T09:55:13.812Z,22.50
2019-02-09T09:56:14.349Z,28.13
2019-02-09T09:57:13.881Z,33.75
2019-02-09T09:58:13.874Z,22.50
2019-02-09T09:59:13.899Z,22.50
2019-02-09T10:00:14.995Z,22.50
2019-02-09T10:01:13.967Z,22.50
2019-02-09T10:02:13.998Z,22.50
2019-02-09T10:03:14.037Z,22.50
2019-02-09T10:04:14.132Z,16.88
2019-02-09T10:05:14.022Z,16.88
2019-02-09T10:06:15.050Z,16.88
2019-02-09T10:07:14.062Z,11.25
2019-02-09T10:08:14.106Z,11.25
2019-02-09T10:09:14.108Z,11.25
2019-02-09T10:10:14.153Z,11.25
2019-02-09T10:11:14.150Z,11.25
2019-02-09T10:12:15.181Z,11.25
2019-02-09T10:13:14.212Z,11.25
2019-02-09T10:14:14.233Z,11.25
2019-02-09T10:15:14.227Z,5.63
2019-02-09T10:16:14.266Z,5.63
2019-02-09T10:17:14.270Z,5.63
2019-02-09T10:18:16.245Z,5.63
2019-02-09T10:19:14.314Z,5.63
2019-02-09T10:20:14.385Z,5.63
2019-02-09T10:21:14.348Z,5.63
2019-02-09T10:22:14.372Z,5.63
2019-02-09T10:23:14.390Z,5.63
2019-02-09T10:24:15.423Z,0.00
2019-02-09T10:25:14.423Z,0.00
2019-02-09T10:26:14.455Z,0.00
2019-02-09T10:27:14.472Z,0.00
2019-02-09T10:28:14.503Z,0.00
2019-02-09T10:29:14.501Z,0.00
2019-02-09T10:30:15.543Z,0.00
2019-02-09T10:31:14.545Z,0.00
2019-02-09T10:32:14.573Z,0.00
2019-02-09T10:33:14.585Z,0.00
2019-02-09T10:34:14.707Z,0.00
2019-02-09T10:35:14.633Z,0.00
2019-02-09T10:36:15.803Z,0.00
2019-02-09T10:37:14.673Z,0.00
2019-02-09T10:38:14.686Z,0.00
2019-02-09T10:39:14.703Z,0.00
2019-02-09T10:40:14.720Z,0.00
2019-02-09T10:41:14.793Z,0.00
2019-02-09T10:42:15.799Z,0.00
2019-02-09T10:43:14.786Z,0.00
2019-02-09T10:44:14.802Z,0.00
2019-02-09T10:45:14.830Z,0.00
2019-02-09T10:46:14.838Z,0.00
2019-02-09T10:47:14.876Z,0.00
2019-02-09T10:48:15.898Z,0.00
2019-02-09T10:49:14.908Z,0.00
2019-02-09T10:50:14.922Z,0.00
2019-02-09T10:51:14.941Z,0.00
2019-02-09T10:52:14.959Z,0.00
2019-02-09T10:53:14.989Z,0.00
2019-02-09T10:54:16.017Z,0.00
2019-02-09T10:55:15.023Z,0.00
2019-02-09T10:56:15.039Z,0.00
2019-02-09T10:57:15.092Z,0.00
2019-02-09T10:58:15.077Z,0.00
2019-02-09T10:59:15.095Z,0.00
2019-02-09T11:00:16.141Z,0.00
2019-02-09T11:01:15.140Z,0.00
2019-02-09T11:02:15.164Z,0.00
2019-02-09T11:03:15.175Z,0.00
2019-02-09T11:04:15.186Z,0.00
2019-02-09T11:05:15.205Z,0.00
2019-02-09T11:06:16.240Z,0.00
2019-02-09T11:07:15.414Z,0.00
2019-02-09T11:08:15.265Z,0.00
2019-02-09T11:09:15.282Z,0.00
2019-02-09T11:10:15.321Z,0.00
2019-02-09T11:11:15.332Z,0.00
2019-02-09T11:12:16.357Z,0.00
2019-02-09T11:13:15.358Z,0.00
2019-02-09T11:14:15.389Z,0.00
2019-02-09T11:15:15.408Z,0.00
2019-02-09T11:16:15.421Z,0.00
2019-02-09T11:17:15.438Z,0.00
2019-02-09T11:18:16.474Z,0.00
2019-02-09T11:19:15.480Z,0.00
2019-02-09T11:20:15.491Z,0.00
2019-02-09T11:21:15.516Z,0.00
2019-02-09T11:22:15.679Z,0.00
2019-02-09T11:23:15.555Z,0.00
2019-02-09T11:24:16.586Z,0.00
2019-02-09T11:25:15.602Z,0.00
2019-02-09T11:26:15.623Z,0.00
2019-02-09T11:27:15.627Z,0.00
2019-02-09T11:28:15.650Z,0.00
2019-02-09T11:29:15.670Z,0.00
2019-02-09T11:30:16.697Z,0.00
2019-02-09T11:31:15.709Z,0.00
2019-02-09T11:32:15.720Z,0.00
2019-02-09T11:33:15.744Z,0.00
2019-02-09T11:34:15.755Z,0.00
2019-02-09T11:35:15.778Z,0.00
2019-02-09T11:36:16.808Z,0.00
2019-02-09T11:37:15.837Z,0.00
2019-02-09T11:38:17.131Z,0.00
2019-02-09T11:39:15.928Z,0.00
2019-02-09T11:40:15.881Z,0.00
2019-02-09T11:41:15.891Z,0.00
2019-02-09T11:42:17.654Z,0.00
2019-02-09T11:43:15.943Z,0.00
2019-02-09T11:44:16.169Z,0.00
2019-02-09T11:45:15.971Z,0.00
2019-02-09T11:46:15.997Z,0.00
2019-02-09T11:47:16.007Z,0.00
2019-02-09T11:48:17.038Z,0.00
2019-02-09T11:49:16.833Z,0.00
2019-02-09T11:50:16.064Z,0.00
2019-02-09T11:51:16.075Z,0.00
2019-02-09T11:52:16.103Z,0.00
2019-02-09T11:53:16.118Z,0.00
2019-02-09T11:54:18.068Z,0.00
2019-02-09T11:55:16.185Z,0.00
2019-02-09T11:56:16.174Z,0.00
2019-02-09T11:57:16.209Z,0.00
2019-02-09T11:58:16.352Z,0.00
2019-02-09T11:59:16.228Z,0.00
2019-02-09T12:00:17.261Z,0.00
2019-02-09T12:01:16.625Z,0.00
2019-02-09T12:02:16.292Z,0.00
2019-02-09T12:03:16.509Z,0.00
2019-02-09T12:04:16.323Z,0.00
2019-02-09T12:05:16.336Z,0.00
2019-02-09T12:06:17.365Z,0.00
2019-02-09T12:07:16.383Z,0.00
2019-02-09T12:08:16.396Z,0.00
2019-02-09T12:09:16.414Z,0.00
2019-02-09T12:10:16.431Z,0.00
2019-02-09T12:11:16.488Z,0.00
2019-02-09T12:12:17.479Z,0.00
2019-02-09T12:13:16.491Z,0.00
2019-02-09T12:14:16.503Z,0.00
2019-02-09T12:15:16.529Z,0.00
2019-02-09T12:16:16.547Z,0.00
2019-02-09T12:17:16.573Z,0.00
2019-02-09T12:18:17.596Z,0.00
2019-02-09T12:19:16.599Z,0.00
2019-02-09T12:20:16.537Z,0.00
2019-02-09T12:21:16.637Z,0.00
2019-02-09T12:22:16.654Z,0.00
2019-02-09T12:23:17.363Z,0.00
2019-02-09T12:24:17.703Z,0.00
2019-02-09T12:25:16.750Z,0.00
2019-02-09T12:26:16.737Z,0.00
2019-02-09T12:27:16.746Z,0.00
2019-02-09T12:28:16.771Z,0.00
2019-02-09T12:29:16.785Z,0.00
2019-02-09T12:30:17.810Z,0.00
2019-02-09T12:31:16.819Z,0.00
2019-02-09T12:32:16.841Z,0.00
2019-02-09T12:33:22.748Z,0.00
2019-02-09T12:34:16.894Z,0.00
2019-02-09T12:35:16.899Z,0.00
2019-02-09T12:36:17.946Z,0.00
2019-02-09T12:37:16.937Z,0.00
2019-02-09T12:38:16.952Z,0.00
2019-02-09T12:39:16.979Z,0.00
2019-02-09T12:40:16.984Z,0.00
2019-02-09T12:41:17.003Z,0.00
2019-02-09T12:42:18.077Z,0.00
2019-02-09T12:43:17.040Z,0.00
2019-02-09T12:44:17.074Z,0.00
2019-02-09T12:45:17.099Z,0.00
2019-02-09T12:46:17.100Z,0.00
2019-02-09T12:47:17.114Z,0.00
2019-02-09T12:48:18.155Z,0.00
2019-02-09T12:49:17.150Z,0.00
2019-02-09T12:50:17.170Z,0.00
2019-02-09T12:51:17.188Z,0.00
2019-02-09T12:52:17.209Z,0.00
2019-02-09T12:53:17.236Z,0.00
2019-02-09T12:54:18.258Z,0.00
2019-02-09T12:55:17.272Z,0.00
2019-02-09T12:56:17.299Z,0.00
2019-02-09T12:57:17.303Z,0.00
2019-02-09T12:58:17.322Z,0.00